Aérodrome :
LOGIN :

S'inscrire | Disclaimer

   EN    FR    IT 

 










Légende :    VFR   VFR Marginal   IFR   IFR Intensif   IFR Très Intensif
Visi : 
Plafond : 
>= 8 km
>= 3000ft
5 à 8 km
1000 à 3000 ft
1500m à 5 km
500 à 1000 ft
800 à 1500m
200 à 500 ft
< 800m
< 200 ft
Symboles :   Orages  Brouillard  Fortes neiges  Fortes précipitations  Vent > 20 kt
SIGMETs :   Divers  Orages  Givrage  Turbulence  Onde Orograph.  Cendres Volcan.







- Altitude de l'aérodrome : 459 ft
- Code IATA : CER
- Voir les cartes d'approche


LFRC - Cherbourg / Maupertus

DERNIER METAR :
  • 250030Z AUTO 17007KT 0600 R28/0800N FG VV/// ///TCU 15/15 Q1017

METARs EXPIRÉS :
  • 250000Z AUTO 15007KT 0500 R28/0650N FG VV/// 15/14 Q1017
  • 242330Z AUTO 13008KT 0650 R28/0800N FG VV/// 15/14 Q1017
  • 242300Z AUTO 13007KT 2300 BR VV/// 15/14 Q1017
  • 242230Z AUTO 13009KT 5000 BR OVC002 15/14 Q1017
  • 242200Z AUTO 13009KT 3800 -RADZ BR OVC002 15/14 Q1017

Prévision TAF périmée.
Pas de NOTAMs connus pour ce terrain.



MET'MAP, la Météo Aéronautique d'un coup d'oeil ! - Copyright ORBIFLY Décembre 2007 - Disclaimer

ORBIFLY MET'MAP TEAM :

Programmation & Développement : Alexandra Zaïnal
Conception & Développement : Baudouin d'Aumeries
Co-Programmation & Développement : Marc-Olivier Méhu
Soutien technique & logistique : Manuel Goepfert

Contact : metmap@orbifly.com




SOURCES & CREDITS :

   NOAA